Cyril Gazengel

Cyril Gazengel

Statistiques 2026

  • Courses courues : 147
  • Nb de victoires : 10
  • Nb de places : 30
  • Écart gagnant : 34
  • Réussite à la gagne : 7%
  • Réussite à la place : 20%
Musique : 0a 8a 7a 7a 3a Da 7a Da Da Da 2a 7a 0a 8a Da 8a 0a 6a
DateRangCatégorieAlloc.Dist.HippodromeChevalRed. KmSpé.
01/02/16 3 Trot 17 000€ 2 150m Toulouse Chance de Lespi 1'17"8 Attelé
31/01/16 D Trot 13 000€ 2 975m Toulouse Cocktail d'Espace Monté
31/01/16 D Trot 20 000€ 2 950m Toulouse Vista Danover Attelé
25/01/16 3 Trot 16 000€ 2 975m Toulouse Abelion 1'18"2 Monté
25/01/16 5 Trot 16 000€ 2 750m Toulouse Angelica Danover 1'18"0 Attelé
24/01/16 2 Trot 15 000€ 2 950m Toulouse Baccarat Emotion 1'20"1 Monté
20/01/16 3 Trot 23 000€ 2 625m Agen Bastion de Vivy 1'16"9 Attelé lire

Tout de suite aux avant postes, a très bien lutté jusqu'au bout, conservant ainsi une courageuse troisième place.

18/01/16 2 Trot 17 000€ 2 325m Toulouse Baccarat Emotion 1'17"3 Monté
17/01/16 5 Trot 25 000€ 2 950m Toulouse Va Bene Danover 1'17"2 Attelé
11/01/16 D Trot 28 000€ 2 650m Marseille Vivaux Ultra Mix Attelé
11/01/16 0 Trot 21 000€ 2 650m Marseille Vivaux Velcane Monté
10/01/16 7 Trot 16 000€ 2 750m Grenade Sur Garonne Ulysse du Campdos Monté
10/01/16 2 Trot 15 000€ 2 750m Grenade Sur Garonne Aridelle de Renier 1'18"6 Attelé
10/01/16 8 Trot 13 000€ 2 750m Grenade Sur Garonne Colonel Chanlecy 1'21"5 Attelé
04/01/16 1 Trot 18 000€ 2 750m Toulouse Belta Follia 1'19"2 Attelé
04/01/16 0 Trot 20 000€ 2 325m Toulouse Timber Wolf Monté
04/01/16 2 Trot 18 000€ 2 325m Toulouse Chance de Lespi 1'18"4 Attelé
03/01/16 4 Trot 20 000€ 2 975m Toulouse Venise Danover 1'16"7 Attelé
03/01/16 D Trot 12 000€ 2 150m Toulouse Code Magic Attelé
28/12/15 D Trot 24 000€ 2 975m Toulouse Tamerlan Monté
27/12/15 3 Trot 17 000€ 2 425m Montauban Aridelle de Renier 1'18"0 Attelé
27/12/15 5 Trot 17 000€ 2 425m Montauban Angelica Danover 1'16"8 Attelé
27/12/15 4 Trot 32 000€ 2 400m Montauban The Au Lait 1'16"0 Attelé
23/12/15 0 Trot 23 000€ 2 675m Bordeaux Le Bouscat Augusta Danover Attelé lire

Après avoir bien figuré, a complètement cédé dans la phase finale.

23/12/15 D Trot 25 000€ 2 650m Bordeaux Le Bouscat Ulblak du Pac Monté lire

A pris le galop dans le tournant final alors qu'il était battu depuis un moment.

20/12/15 2 Trot 13 000€ 2 100m Grenade Sur Garonne Cocktail d'Espace 1'17"4 Monté
14/12/15 5 Trot 21 000€ 2 700m Graignes Baccarat Emotion 1'18"1 Monté
13/12/15 0 Trot 15 000€ 2 725m Grenade Sur Garonne Belta Follia Attelé
07/12/15 6 Trot 26 000€ 2 650m Marseille Vivaux Ultra Mix 1'18"4 Attelé
07/12/15 1 Trot 20 000€ 2 650m Marseille Vivaux Abelion 1'17"6 Monté
06/12/15 0 Trot 15 000€ 2 575m Agen Amelium Tivoli Attelé
06/12/15 0 Trot 13 000€ 2 575m Agen Bessin Attelé
06/12/15 D Trot 13 000€ 2 625m Agen Carla de Rouaisse Attelé
05/12/15 D Trot 15 000€ 2 725m Grenade Sur Garonne Boss Tout Puissant Attelé
05/12/15 8 Trot 16 000€ 2 725m Grenade Sur Garonne Volupte Danover 1'18"2 Monté
22/11/15 D Trot 14 000€ 2 750m Toulouse Bessin Attelé
22/11/15 2 Trot 14 000€ 2 325m Toulouse Baccarat Emotion 1'18"9 Monté
15/11/15 0 Trot 22 000€ 2 675m Bordeaux Le Bouscat Saphir du Gite Monté lire

A toujours évolué dans la dernière partie du peloton.

11/11/15 2 Trot 13 000€ 2 250m Auch Chance de Lespi 1'17"8 Attelé
11/11/15 5 Trot 14 000€ 2 825m Auch Basse Terre 1'18"2 Attelé lire

Encore en très net retrait au bout de la ligne opposée, a terminé de très bonne manière, sans avoir le temps de venir inquiéter les premiers.

08/11/15 5 Trot 17 000€ 2 400m Castelsarrasin Va Bene Danover 1'17"8 Attelé
01/11/15 0 Trot 14 000€ 2 400m Beaumont De Lomagne Artaban du Hamet Attelé
01/11/15 4 Trot 14 000€ 2 400m Beaumont De Lomagne Chance de Lespi 1'17"9 Attelé
31/10/15 7 Mixte 15 000€ 2 400m Beaumont De Lomagne Bisou du Pressoir 1'17"2 Attelé
27/10/15 D Trot 15 000€ 2 700m Lyon La Soie Baccarat Emotion Monté
26/10/15 9 Trot 18 000€ 2 150m Toulouse Boss de Viette 1'18"6 Attelé
26/10/15 9 Trot 18 000€ 2 150m Toulouse Basse Terre 1'18"7 Attelé
26/10/15 0 Trot 25 000€ 2 950m Toulouse Vanda de Godrel Attelé
26/10/15 5 Trot 20 000€ 2 950m Toulouse Concertino 1'19"4 Attelé
26/10/15 5 Trot 22 000€ 2 750m Toulouse Solerino 1'17"0 Attelé